South Boardman, MI (49680)

4:12 AM EST on January 31, 2015 (GMT -0500)
MTSO OBSERVATORY | Change Station
CLOSE
Current Station
Personal Weather Station
Location: FIFE LAKE, MI
Elevation: 1175 ft
Nearby Weather Stations

Elev 1175 ft 44.58 °N, 85.17 °W | Updated 7 seconds ago

Overcast
Overcast
13.1 °F
Feels Like 13 °F
N
0.0
Wind Variable Wind from South
Gusts 0.0 mph

Today
High -- | Low -- °F
--% Chance of Precip.
Yesterday
High -- | Low -- °F
Precip. -- in
8:01 AM 5:48 PM
Waxing Gibbous, 88% visible
Pressure 30.25 in
Visibility 10.0 miles
Clouds Mostly Cloudy 7000 ft
Overcast 8500 ft
Windchill 13 °F
Dew Point 9 °F
Humidity 85%
Rainfall 0.00 in
Snow Depth Not available.
UV 0.0 out of 12
Pollen .10 out of 12
Air Quality Not available.
Flu Activity Not available.
METAR KTVC 310853Z 00000KT 10SM BKN070 OVC085 M08/M12 A3021 RMK AO2 SLP242 T10831122 56024 $

More Conditions Fewer Conditions

Pressure 30.25 in
Visibility 10.0 miles
Clouds Mostly Cloudy 7000 ft
Overcast 8500 ft
Windchill 13 °F
Dew Point 9 °F
Humidity 85%
Rainfall 0.00 in
Snow Depth Not available.
UV 0.0 out of 12
Pollen .10 out of 12
Air Quality Not available.
Flu Activity Not available.
METAR KTVC 310853Z 00000KT 10SM BKN070 OVC085 M08/M12 A3021 RMK AO2 SLP242 T10831122 56024 $

More Conditions Fewer Conditions

Nowcast | as of 4:00 am EST on January 31, 2015

At 5 am...snow. Temperature 15. South winds 5 mph. At 7 am...cloudy. Temperature 14. South winds 5 mph. At 9 am...cloudy. Temperature 18. Southwest winds 6 mph. At 11 am...snow likely. Temperature 24. Southwest winds 7 mph.

×

10-Day Weather Forecast

Almanac

Astronomy

Jan. 31, 2015 Rise Set
Actual Time
Civil Twilight
Nautical Twilight
Astronomical Twilight
Moon
Length of Visible Light
Length of Day
Tomorrow will be .
, % of the Moon is Illuminated

Today's Extremes

State Highs State Lows

Community

WunderPhotos

Upload Photos

1,792,021 photos uploaded!

WunderBlogs® & News

Nearby

Air Quality

  Air Quality AQ Index Pollutant
Not available.

Snow Depth

Station Depth Elevation

Earthquake Activity

City Distance Mag. Time & Date
Minimum magnitude displayed is 2.5.

Coastal Water Temperatures

Place Temperature

Nearby Weather Stations